Time;durP1;ratioP1;P1;durP2;ratioP2;P2;SDS_P1;SDS_P2;PMS_P1;PMS_P2;Temp;Humidity;BMP_temperature;BMP_pressure;BME280_temperature;BME280_humidity;BME280_pressure;Samples;Min_cycle;Max_cycle;Signal;HPM_P1;HPM_P2
2021/12/29 00:01:24;;;;;;;8.50;3.72;;;6.60;99.90;;;;;;5049444;28;20045;-79
2021/12/29 00:03:50;;;;;;;10.77;4.03;;;6.60;99.90;;;;;;5048718;28;20037;-79
2021/12/29 00:06:16;;;;;;;5.28;2.13;;;6.60;99.90;;;;;;5050515;28;20040;-79
2021/12/29 00:08:42;;;;;;;6.35;3.47;;;6.70;99.90;;;;;;5049571;28;20045;-78
2021/12/29 00:11:07;;;;;;;13.23;5.57;;;6.70;99.90;;;;;;5050639;28;20041;-78
2021/12/29 00:13:33;;;;;;;3.03;2.47;;;6.70;99.90;;;;;;5045444;28;20543;-78
2021/12/29 00:16:00;;;;;;;13.98;4.00;;;6.70;99.90;;;;;;5050351;28;20029;-79
2021/12/29 00:18:31;;;;;;;5.65;3.85;;;6.70;99.90;;;;;;5082799;28;20115;-79
2021/12/29 00:21:01;;;;;;;10.90;3.88;;;6.70;99.90;;;;;;5045414;28;20041;-79
2021/12/29 00:23:27;;;;;;;14.18;4.85;;;6.70;99.90;;;;;;5049768;28;20040;-79
2021/12/29 00:25:53;;;;;;;8.18;3.97;;;6.70;99.90;;;;;;5052341;28;20079;-79
2021/12/29 00:28:20;;;;;;;16.52;5.55;;;6.70;99.90;;;;;;5049980;28;20045;-79
2021/12/29 00:30:46;;;;;;;19.10;5.55;;;6.70;99.90;;;;;;5036855;28;20501;-79
2021/12/29 00:33:12;;;;;;;11.65;4.45;;;6.70;99.90;;;;;;5047756;28;20136;-78
2021/12/29 00:35:41;;;;;;;1.52;1.40;;;6.70;99.90;;;;;;5049978;28;20112;-78
2021/12/29 00:38:09;;;;;;;24.00;5.22;;;6.70;99.90;;;;;;5039659;28;20116;-78
2021/12/29 00:40:35;;;;;;;6.07;2.97;;;6.80;99.90;;;;;;5047898;28;20040;-79
2021/12/29 00:43:01;;;;;;;16.35;4.40;;;6.80;99.90;;;;;;5050279;28;20047;-78
2021/12/29 00:45:27;;;;;;;46.80;6.28;;;6.80;99.90;;;;;;5047673;28;20120;-79
2021/12/29 00:47:53;;;;;;;50.85;8.55;;;6.90;99.90;;;;;;5047973;28;20041;-79
2021/12/29 00:50:19;;;;;;;11.73;2.88;;;6.90;99.90;;;;;;5049913;28;20512;-78
2021/12/29 00:52:46;;;;;;;11.45;2.95;;;6.90;99.90;;;;;;5050219;28;20045;-79
2021/12/29 00:55:14;;;;;;;12.40;3.55;;;7.00;99.90;;;;;;5035392;28;20041;-79
2021/12/29 00:57:40;;;;;;;9.75;3.95;;;6.90;99.90;;;;;;5037434;28;20037;-79
2021/12/29 01:00:14;;;;;;;27.50;5.97;;;6.90;99.90;;;;;;5050536;28;20049;-79
2021/12/29 01:02:40;;;;;;;46.20;6.70;;;7.00;99.90;;;;;;5045018;28;20056;-79
2021/12/29 01:05:07;;;;;;;71.90;10.80;;;6.90;99.90;;;;;;5037072;28;20044;-78
2021/12/29 01:07:33;;;;;;;56.63;8.85;;;7.00;99.90;;;;;;5048919;28;20040;-78
2021/12/29 01:10:00;;;;;;;17.75;4.60;;;7.00;99.90;;;;;;5048834;28;20076;-79
2021/12/29 01:12:27;;;;;;;51.10;7.35;;;7.10;99.90;;;;;;5045312;28;20042;-78
2021/12/29 01:14:55;;;;;;;5.22;3.17;;;7.10;99.90;;;;;;5031530;28;20041;-78
2021/12/29 01:17:22;;;;;;;41.80;5.90;;;7.10;99.90;;;;;;5049739;28;20083;-79
2021/12/29 01:19:50;;;;;;;79.15;10.25;;;7.00;99.90;;;;;;5081704;28;20044;-79
2021/12/29 01:22:16;;;;;;;37.28;6.95;;;7.00;99.90;;;;;;5038357;28;20076;-79
2021/12/29 01:24:46;;;;;;;39.17;5.40;;;7.10;99.90;;;;;;5048686;28;20033;-79
2021/12/29 01:27:13;;;;;;;65.82;8.20;;;7.00;99.90;;;;;;5049219;28;20040;-79
2021/12/29 01:29:39;;;;;;;39.88;6.88;;;7.00;99.90;;;;;;5029196;28;20048;-79
2021/12/29 01:32:05;;;;;;;9.52;3.50;;;7.10;99.90;;;;;;5048525;28;20056;-78
2021/12/29 01:34:31;;;;;;;12.93;4.32;;;7.10;99.90;;;;;;5049603;28;20490;-79
2021/12/29 01:36:57;;;;;;;40.10;5.72;;;7.10;99.90;;;;;;5049562;28;20041;-79
2021/12/29 01:39:22;;;;;;;5.63;3.00;;;7.10;99.90;;;;;;5048722;28;20067;-78
2021/12/29 01:41:51;;;;;;;6.25;4.35;;;7.10;99.90;;;;;;5048396;28;20036;-79
2021/12/29 01:44:21;;;;;;;15.38;4.93;;;7.10;99.90;;;;;;5050778;28;20041;-78
2021/12/29 01:46:47;;;;;;;21.80;5.78;;;7.20;99.90;;;;;;5035079;28;20045;-79
2021/12/29 01:49:13;;;;;;;60.60;12.40;;;7.20;99.90;;;;;;5053009;28;20048;-79
2021/12/29 01:52:01;;;;;;;12.35;5.32;;;7.20;99.90;;;;;;5053404;28;20041;-78
2021/12/29 01:54:27;;;;;;;21.17;4.88;;;7.20;99.90;;;;;;5042102;28;20049;-79
2021/12/29 01:56:55;;;;;;;29.85;6.03;;;7.20;99.90;;;;;;5043043;28;20416;-79
2021/12/29 01:59:22;;;;;;;6.97;2.28;;;7.20;99.90;;;;;;5051357;28;20057;-78
2021/12/29 02:01:48;;;;;;;9.82;2.85;;;7.20;99.90;;;;;;5051778;28;20041;-78
2021/12/29 02:04:14;;;;;;;20.05;4.97;;;7.20;99.90;;;;;;5052632;28;20056;-78
2021/12/29 02:06:40;;;;;;;21.52;6.43;;;7.20;99.90;;;;;;5042691;28;20038;-78
2021/12/29 02:09:08;;;;;;;26.52;6.38;;;7.20;99.90;;;;;;5051800;28;20037;-78
2021/12/29 02:11:34;;;;;;;19.65;5.32;;;7.20;99.90;;;;;;5053229;28;20059;-78
2021/12/29 02:14:02;;;;;;;46.47;8.35;;;7.20;99.90;;;;;;5048738;28;20042;-78
2021/12/29 02:16:29;;;;;;;5.25;2.20;;;7.20;99.90;;;;;;5052719;28;20041;-78
2021/12/29 02:18:57;;;;;;;6.57;2.45;;;7.20;99.90;;;;;;5052335;28;20476;-79
2021/12/29 02:21:25;;;;;;;46.88;7.55;;;7.20;99.90;;;;;;5084443;28;20041;-78
2021/12/29 02:26:29;;;;;;;8.05;3.25;;;7.20;99.90;;;;;;5058047;28;20103;-79
2021/12/29 02:28:56;;;;;;;16.35;5.20;;;7.20;99.90;;;;;;5053087;28;20037;-79
2021/12/29 02:31:24;;;;;;;6.78;3.47;;;7.20;99.90;;;;;;5050510;28;20033;-78
2021/12/29 02:33:51;;;;;;;19.42;6.10;;;7.30;99.90;;;;;;5084734;28;20429;-79
2021/12/29 02:36:19;;;;;;;15.20;2.13;;;7.30;99.90;;;;;;5051802;28;20456;-78
2021/12/29 02:38:50;;;;;;;35.67;7.60;;;7.30;99.90;;;;;;5048545;28;20454;-78
2021/12/29 02:41:16;;;;;;;26.55;5.43;;;7.30;99.90;;;;;;5050055;28;20049;-78
2021/12/29 02:43:43;;;;;;;1.88;1.60;;;7.40;99.90;;;;;;5052672;28;20029;-78
2021/12/29 02:46:14;;;;;;;23.88;5.85;;;7.40;99.90;;;;;;5084317;28;20053;-78
2021/12/29 02:48:48;;;;;;;29.30;5.78;;;7.40;99.90;;;;;;5035521;28;20030;-78
2021/12/29 02:51:14;;;;;;;7.07;3.35;;;7.40;99.90;;;;;;5044497;28;20186;-78
2021/12/29 02:53:39;;;;;;;28.00;5.63;;;7.40;99.90;;;;;;5034332;28;20124;-79
2021/12/29 02:56:05;;;;;;;51.17;10.10;;;7.50;99.90;;;;;;5042422;28;20116;-78
2021/12/29 02:58:32;;;;;;;16.55;4.88;;;7.40;99.90;;;;;;5043628;28;20094;-78
2021/12/29 03:01:01;;;;;;;35.90;7.13;;;7.50;99.90;;;;;;5084316;28;20496;-78
2021/12/29 03:03:28;;;;;;;24.15;7.32;;;7.50;99.90;;;;;;5051717;28;20036;-79
2021/12/29 03:05:54;;;;;;;14.13;5.22;;;7.50;99.90;;;;;;5044688;28;20044;-78
2021/12/29 03:08:21;;;;;;;32.13;8.30;;;7.50;99.90;;;;;;5051167;28;20457;-78
2021/12/29 03:10:52;;;;;;;37.60;8.70;;;7.50;99.90;;;;;;5052321;28;20048;-79
2021/12/29 03:13:28;;;;;;;53.22;8.80;;;7.60;99.90;;;;;;5050214;28;20040;-78
2021/12/29 03:15:55;;;;;;;19.45;6.00;;;7.60;99.90;;;;;;5051217;28;20052;-79
2021/12/29 03:18:22;;;;;;;28.25;7.85;;;7.60;99.90;;;;;;5049993;28;20051;-79
2021/12/29 03:20:48;;;;;;;20.63;7.03;;;7.60;99.90;;;;;;5049692;28;20032;-79
2021/12/29 03:23:15;;;;;;;37.50;9.45;;;7.70;99.90;;;;;;5046255;28;20040;-79
2021/12/29 03:25:41;;;;;;;46.42;10.55;;;7.70;99.90;;;;;;5063114;28;20041;-78
2021/12/29 03:28:08;;;;;;;62.97;11.80;;;7.70;99.90;;;;;;5050172;28;20037;-78
2021/12/29 03:30:37;;;;;;;45.55;11.07;;;7.70;99.90;;;;;;5034990;28;20079;-79
2021/12/29 03:33:07;;;;;;;54.40;11.68;;;7.80;99.90;;;;;;5051186;28;20482;-78
2021/12/29 03:35:42;;;;;;;25.35;7.65;;;7.80;99.90;;;;;;5051044;28;20040;-79
2021/12/29 03:38:17;;;;;;;42.15;10.35;;;7.80;99.90;;;;;;5063496;28;20041;-79
2021/12/29 03:40:43;;;;;;;56.80;12.90;;;7.80;99.90;;;;;;5044276;28;20041;-79
2021/12/29 03:43:10;;;;;;;75.75;16.95;;;7.80;99.90;;;;;;5051282;28;20124;-78
2021/12/29 03:45:37;;;;;;;53.08;12.88;;;7.80;99.90;;;;;;5046667;28;20084;-78
2021/12/29 03:48:04;;;;;;;51.35;12.65;;;7.80;99.90;;;;;;5043694;28;20041;-79
2021/12/29 03:50:30;;;;;;;25.63;9.20;;;7.80;99.90;;;;;;5048052;28;20297;-78
2021/12/29 03:52:56;;;;;;;51.75;12.02;;;7.90;99.90;;;;;;5051350;28;20448;-78
2021/12/29 03:55:22;;;;;;;51.28;12.43;;;7.90;99.90;;;;;;5043809;28;20038;-78
2021/12/29 03:57:48;;;;;;;35.30;10.10;;;7.80;99.90;;;;;;5046996;28;20036;-79
2021/12/29 04:00:16;;;;;;;22.85;7.13;;;7.80;99.90;;;;;;5051509;28;20037;-78
2021/12/29 04:02:43;;;;;;;16.92;7.07;;;7.80;99.90;;;;;;5050431;28;20041;-78
2021/12/29 04:05:12;;;;;;;18.63;4.85;;;7.80;99.90;;;;;;5042277;28;20041;-78
2021/12/29 04:07:38;;;;;;;53.40;14.80;;;7.80;99.90;;;;;;5032293;28;20041;-78
2021/12/29 04:10:06;;;;;;;5.88;3.67;;;7.80;99.90;;;;;;5050794;28;20037;-78
2021/12/29 04:12:32;;;;;;;14.18;6.47;;;7.80;99.90;;;;;;5046609;28;20044;-78
2021/12/29 04:14:58;;;;;;;15.65;7.15;;;7.80;99.90;;;;;;5050662;28;20043;-79
2021/12/29 04:17:29;;;;;;;33.78;9.07;;;7.80;99.90;;;;;;5050200;28;20068;-78
2021/12/29 04:22:39;;;;;;;12.57;4.95;;;7.80;99.90;;;;;;5033400;28;20111;-78
2021/12/29 04:25:05;;;;;;;7.60;3.97;;;7.80;99.90;;;;;;5055650;28;20501;-78
2021/12/29 04:27:31;;;;;;;41.80;11.65;;;7.80;99.90;;;;;;5046761;28;20048;-79
2021/12/29 04:29:57;;;;;;;7.63;3.65;;;7.80;99.90;;;;;;5034667;28;20036;-78
2021/12/29 04:32:23;;;;;;;13.07;4.13;;;7.70;99.90;;;;;;5049958;28;20047;-78
2021/12/29 04:34:48;;;;;;;37.38;10.55;;;7.70;99.90;;;;;;5050320;28;20045;-79
2021/12/29 04:37:14;;;;;;;11.38;5.45;;;7.70;99.90;;;;;;5048652;28;20033;-79
2021/12/29 04:39:40;;;;;;;12.85;5.47;;;7.80;99.90;;;;;;5031170;28;20394;-78
2021/12/29 04:42:06;;;;;;;21.98;6.88;;;7.80;99.90;;;;;;5043849;28;20413;-79
2021/12/29 04:44:32;;;;;;;22.42;4.13;;;7.80;99.90;;;;;;5049952;28;20651;-78
2021/12/29 04:46:58;;;;;;;14.30;7.53;;;7.80;99.90;;;;;;5041663;28;20033;-78
2021/12/29 04:49:28;;;;;;;31.08;9.80;;;7.70;99.90;;;;;;5050170;28;20110;-77
2021/12/29 04:52:03;;;;;;;2.70;2.22;;;7.70;99.90;;;;;;5049828;28;20043;-76
2021/12/29 04:54:30;;;;;;;10.43;6.13;;;7.70;99.90;;;;;;5041443;28;20048;-76
2021/12/29 04:56:57;;;;;;;49.47;15.85;;;7.80;99.90;;;;;;5046237;28;20041;-76
2021/12/29 04:59:25;;;;;;;14.48;5.93;;;7.80;99.90;;;;;;5049617;28;20146;-76
2021/12/29 05:01:50;;;;;;;25.30;8.80;;;7.80;99.90;;;;;;5048863;28;20033;-76
2021/12/29 05:04:22;;;;;;;22.08;7.07;;;7.80;99.90;;;;;;5037479;28;20132;-77
2021/12/29 05:09:33;;;;;;;13.30;6.82;;;7.80;99.90;;;;;;5050359;28;20131;-76
2021/12/29 05:12:00;;;;;;;22.90;9.70;;;7.80;99.90;;;;;;5048731;28;20120;-76
2021/12/29 05:14:26;;;;;;;22.42;10.00;;;7.80;99.90;;;;;;5048390;28;20053;-76
2021/12/29 05:16:52;;;;;;;16.00;6.32;;;7.80;99.90;;;;;;5049472;28;20033;-76
2021/12/29 05:19:18;;;;;;;12.30;6.10;;;7.80;99.90;;;;;;5050968;28;20033;-76
2021/12/29 05:21:43;;;;;;;23.08;8.20;;;7.80;99.90;;;;;;5051783;28;20124;-76
2021/12/29 05:24:09;;;;;;;19.52;6.28;;;7.80;99.90;;;;;;5038832;28;20076;-76
2021/12/29 05:26:35;;;;;;;6.65;3.83;;;7.80;99.90;;;;;;5053235;28;20194;-76
2021/12/29 05:29:02;;;;;;;17.20;7.65;;;7.80;99.90;;;;;;5035981;28;20041;-76
2021/12/29 05:31:28;;;;;;;29.83;11.40;;;7.80;99.90;;;;;;5040680;28;20128;-76
2021/12/29 05:33:55;;;;;;;21.88;8.88;;;7.80;99.90;;;;;;5053840;28;20073;-76
2021/12/29 05:36:20;;;;;;;5.20;2.85;;;7.70;99.90;;;;;;5052144;28;20037;-76
2021/12/29 05:38:46;;;;;;;6.65;3.53;;;7.70;99.90;;;;;;5047683;28;20540;-76
2021/12/29 05:41:12;;;;;;;15.13;7.25;;;7.70;99.90;;;;;;5051896;28;20134;-76
2021/12/29 05:43:38;;;;;;;9.75;5.72;;;7.70;99.90;;;;;;5086105;28;20041;-76
2021/12/29 05:46:04;;;;;;;7.60;3.70;;;7.70;99.90;;;;;;5053523;28;20651;-76
2021/12/29 05:48:29;;;;;;;12.18;4.32;;;7.70;99.90;;;;;;5051819;28;20500;-76
2021/12/29 05:50:55;;;;;;;5.57;3.40;;;7.70;99.90;;;;;;5053214;28;20708;-76
2021/12/29 05:53:21;;;;;;;3.13;2.40;;;7.70;99.90;;;;;;5053525;28;20041;-76
2021/12/29 05:55:47;;;;;;;19.67;7.20;;;7.70;99.90;;;;;;5051429;28;21296;-76
2021/12/29 05:58:13;;;;;;;7.55;3.17;;;7.70;99.90;;;;;;5047714;28;20040;-76
2021/12/29 06:00:41;;;;;;;14.05;8.45;;;7.70;99.90;;;;;;5084826;28;20045;-76
2021/12/29 06:03:07;;;;;;;23.42;5.68;;;7.70;99.90;;;;;;5052337;28;20048;-76
2021/12/29 06:05:33;;;;;;;6.32;4.50;;;7.70;99.90;;;;;;5051441;28;20086;-76
2021/12/29 06:07:59;;;;;;;11.20;4.22;;;7.70;99.90;;;;;;5052883;28;20682;-76
2021/12/29 06:10:24;;;;;;;2.20;2.03;;;7.70;99.90;;;;;;5039860;28;20056;-76
2021/12/29 06:12:50;;;;;;;2.72;1.25;;;7.70;99.90;;;;;;5051835;28;20045;-76
2021/12/29 06:15:16;;;;;;;3.45;2.40;;;7.70;99.90;;;;;;5052645;28;20041;-76
2021/12/29 06:17:42;;;;;;;4.80;2.80;;;7.70;99.90;;;;;;5050307;28;20069;-76
2021/12/29 06:20:11;;;;;;;11.20;5.28;;;7.70;99.90;;;;;;5038434;28;20120;-76
2021/12/29 06:22:38;;;;;;;1.83;1.48;;;7.70;99.90;;;;;;5051759;28;20459;-76
2021/12/29 06:25:05;;;;;;;1.88;1.40;;;7.70;99.90;;;;;;5052959;28;20041;-77
2021/12/29 06:27:32;;;;;;;3.72;1.95;;;7.70;99.90;;;;;;5049873;28;20531;-77
2021/12/29 06:29:58;;;;;;;2.72;1.25;;;7.70;99.90;;;;;;5049202;28;20397;-77
2021/12/29 06:32:25;;;;;;;3.78;2.83;;;7.70;99.90;;;;;;5052328;28;20469;-77
2021/12/29 06:34:51;;;;;;;1.58;1.45;;;7.70;99.90;;;;;;5051383;28;20045;-77
2021/12/29 06:37:17;;;;;;;0.68;0.68;;;7.70;99.90;;;;;;5050880;28;20040;-77
2021/12/29 06:39:45;;;;;;;13.10;3.45;;;7.70;99.90;;;;;;5051463;28;20048;-77
2021/12/29 06:42:13;;;;;;;22.67;7.40;;;7.60;99.90;;;;;;5053025;28;20040;-77
2021/12/29 06:44:39;;;;;;;15.77;6.95;;;7.60;99.90;;;;;;5038060;28;20045;-77
2021/12/29 06:47:06;;;;;;;38.38;7.75;;;7.70;99.90;;;;;;5034711;28;20378;-77
2021/12/29 06:49:32;;;;;;;3.20;2.63;;;7.70;99.90;;;;;;5052472;28;20107;-76
2021/12/29 06:51:58;;;;;;;30.23;6.32;;;7.70;99.90;;;;;;5051795;28;20064;-77
2021/12/29 06:54:23;;;;;;;21.65;4.05;;;7.60;99.90;;;;;;5046820;28;20371;-77
2021/12/29 06:56:49;;;;;;;1.73;1.60;;;7.70;99.90;;;;;;5032364;28;20060;-77
2021/12/29 06:59:15;;;;;;;8.13;4.35;;;7.70;99.90;;;;;;5045683;28;20468;-77
2021/12/29 07:01:41;;;;;;;2.50;1.85;;;7.60;99.90;;;;;;5052355;28;20083;-77
2021/12/29 07:04:07;;;;;;;10.32;5.10;;;7.70;99.90;;;;;;5039039;28;20053;-77
2021/12/29 07:06:34;;;;;;;8.02;3.83;;;7.60;99.90;;;;;;5038818;28;20044;-77
2021/12/29 07:09:00;;;;;;;6.78;3.63;;;7.70;99.90;;;;;;5049963;28;20125;-77
2021/12/29 07:11:25;;;;;;;31.05;5.65;;;7.70;99.90;;;;;;5047052;28;20120;-77
2021/12/29 07:13:51;;;;;;;9.55;4.70;;;7.60;99.90;;;;;;5047909;28;20051;-77
2021/12/29 07:16:17;;;;;;;6.68;3.08;;;7.70;99.90;;;;;;5050418;28;20049;-77
2021/12/29 07:18:43;;;;;;;12.57;3.80;;;7.70;99.90;;;;;;5051929;28;20040;-77
2021/12/29 07:21:09;;;;;;;13.05;2.58;;;7.70;99.90;;;;;;5044941;28;20041;-77
2021/12/29 07:23:34;;;;;;;2.85;1.80;;;7.60;99.90;;;;;;5049468;28;20370;-77
2021/12/29 07:26:12;;;;;;;28.88;7.47;;;7.70;99.90;;;;;;5060987;28;20060;-77
2021/12/29 07:28:41;;;;;;;4.38;2.35;;;7.70;99.90;;;;;;5051654;28;20042;-77
2021/12/29 07:31:07;;;;;;;2.60;2.25;;;7.70;99.90;;;;;;5030196;28;20099;-77
2021/12/29 07:33:33;;;;;;;0.38;0.38;;;7.70;99.90;;;;;;5043381;28;20420;-77
2021/12/29 07:35:59;;;;;;;4.28;3.00;;;7.70;99.90;;;;;;5051533;28;20340;-77
2021/12/29 07:38:25;;;;;;;1.08;1.05;;;7.70;99.90;;;;;;5050864;28;20492;-77
2021/12/29 07:40:51;;;;;;;16.42;5.68;;;7.70;99.90;;;;;;5049924;28;20128;-77
2021/12/29 07:43:18;;;;;;;12.73;5.43;;;7.70;99.90;;;;;;5050105;28;20492;-76
2021/12/29 07:45:44;;;;;;;2.47;1.65;;;7.70;99.90;;;;;;5049541;28;20052;-77
2021/12/29 07:48:10;;;;;;;2.65;1.58;;;7.70;99.90;;;;;;5046138;28;20032;-77
2021/12/29 07:50:36;;;;;;;0.40;0.40;;;7.70;99.90;;;;;;5051082;28;20044;-77
2021/12/29 07:53:04;;;;;;;1.75;1.50;;;7.70;99.90;;;;;;5035379;28;20060;-77
2021/12/29 07:55:30;;;;;;;2.28;1.52;;;7.70;99.90;;;;;;5041072;28;20049;-77
2021/12/29 07:57:56;;;;;;;0.95;0.93;;;7.70;99.90;;;;;;5036641;28;20041;-77
2021/12/29 08:00:22;;;;;;;2.38;2.17;;;7.70;99.90;;;;;;5038091;28;20040;-77
2021/12/29 08:02:50;;;;;;;14.05;5.10;;;7.70;99.90;;;;;;5042392;28;20041;-77
2021/12/29 08:05:16;;;;;;;8.55;3.17;;;7.60;99.90;;;;;;5041181;28;20040;-78
2021/12/29 08:07:41;;;;;;;7.32;3.13;;;7.60;99.90;;;;;;5045991;28;20120;-77
2021/12/29 08:10:08;;;;;;;0.85;0.85;;;7.70;99.90;;;;;;5045020;28;20489;-77
2021/12/29 08:12:33;;;;;;;19.98;4.43;;;7.70;99.90;;;;;;5045563;28;20047;-77
2021/12/29 08:14:59;;;;;;;3.30;2.15;;;7.70;99.90;;;;;;5040148;28;20116;-77
2021/12/29 08:17:25;;;;;;;8.35;3.13;;;7.70;99.90;;;;;;5043439;28;20060;-77
2021/12/29 08:19:51;;;;;;;1.67;0.50;;;7.70;99.90;;;;;;5036788;28;20464;-77
2021/12/29 08:22:17;;;;;;;88.13;10.27;;;7.70;99.90;;;;;;5077471;28;20130;-77
2021/12/29 08:24:44;;;;;;;3.47;1.67;;;7.70;99.90;;;;;;5046161;28;20404;-77
2021/12/29 08:27:10;;;;;;;58.35;8.93;;;7.70;99.90;;;;;;5055445;28;20203;-77
2021/12/29 08:29:37;;;;;;;14.73;4.78;;;7.70;99.90;;;;;;5044664;28;20059;-77
2021/12/29 08:32:05;;;;;;;19.02;3.25;;;7.70;99.90;;;;;;5051628;28;20134;-77
2021/12/29 08:34:31;;;;;;;0.50;0.50;;;7.80;99.90;;;;;;5044739;28;20098;-77
2021/12/29 08:36:56;;;;;;;2.47;1.35;;;7.80;99.90;;;;;;5042631;28;20037;-77
2021/12/29 08:39:23;;;;;;;1.80;1.27;;;7.80;99.90;;;;;;5036052;28;20041;-77
2021/12/29 08:41:50;;;;;;;3.55;2.40;;;7.80;99.90;;;;;;5042089;28;20098;-77
2021/12/29 08:44:17;;;;;;;2.35;1.83;;;7.80;99.90;;;;;;5039303;28;20405;-77
2021/12/29 08:46:45;;;;;;;8.77;3.28;;;7.80;99.90;;;;;;5031449;28;20044;-77
2021/12/29 08:49:11;;;;;;;14.30;2.40;;;7.90;99.90;;;;;;5041269;28;20044;-77
2021/12/29 08:51:38;;;;;;;3.97;2.38;;;7.90;99.90;;;;;;5047971;28;20456;-77
2021/12/29 08:54:04;;;;;;;14.60;2.25;;;7.90;99.90;;;;;;5041109;28;20072;-77
2021/12/29 08:56:31;;;;;;;7.38;2.30;;;7.90;99.90;;;;;;5036836;28;20046;-78
2021/12/29 08:58:57;;;;;;;1.75;1.55;;;7.80;99.90;;;;;;5052908;28;20029;-77
2021/12/29 09:01:24;;;;;;;13.95;1.45;;;7.90;99.90;;;;;;5040917;28;20041;-77
2021/12/29 09:03:51;;;;;;;0.10;0.10;;;7.90;99.90;;;;;;5040883;28;20041;-77
2021/12/29 09:06:17;;;;;;;0.20;0.20;;;7.90;99.90;;;;;;5042488;28;20121;-77
2021/12/29 09:08:44;;;;;;;0.98;0.90;;;7.90;99.90;;;;;;5041735;28;20040;-77
2021/12/29 09:11:11;;;;;;;18.02;2.40;;;7.90;99.90;;;;;;5040176;28;20073;-77
2021/12/29 09:13:37;;;;;;;26.73;3.40;;;7.90;99.90;;;;;;5047512;28;20076;-77
2021/12/29 09:16:03;;;;;;;0.85;0.85;;;7.90;99.90;;;;;;5035956;28;20552;-77
2021/12/29 09:18:31;;;;;;;17.98;3.10;;;7.90;99.90;;;;;;5041563;28;20059;-77
2021/12/29 09:21:07;;;;;;;7.32;3.38;;;7.90;99.90;;;;;;5062464;28;20080;-77
2021/12/29 09:23:34;;;;;;;3.67;2.15;;;7.90;99.90;;;;;;5038719;28;20036;-77
2021/12/29 09:26:01;;;;;;;5.15;1.92;;;8.00;99.90;;;;;;5059300;28;20509;-77
2021/12/29 09:28:26;;;;;;;1.80;1.55;;;8.00;99.90;;;;;;5050761;28;20156;-77
2021/12/29 09:30:52;;;;;;;1.75;1.15;;;8.00;99.90;;;;;;5035505;28;20045;-77
2021/12/29 09:33:22;;;;;;;2.72;1.23;;;7.90;99.90;;;;;;5031319;28;20041;-77
2021/12/29 09:35:51;;;;;;;23.00;5.45;;;8.00;99.90;;;;;;5069934;28;20047;-77
2021/12/29 09:38:19;;;;;;;0.10;0.10;;;8.00;99.90;;;;;;5053233;28;20080;-77
2021/12/29 09:40:47;;;;;;;0.52;0.52;;;8.10;99.90;;;;;;5061986;28;20111;-77
2021/12/29 09:43:16;;;;;;;1.38;1.27;;;8.10;99.90;;;;;;5029729;28;20049;-77
2021/12/29 09:45:45;;;;;;;0.95;0.93;;;8.10;99.90;;;;;;5040694;28;20044;-77
2021/12/29 09:48:11;;;;;;;6.45;3.85;;;8.10;99.90;;;;;;5046584;28;20036;-77
2021/12/29 09:50:37;;;;;;;0.98;0.95;;;8.10;99.90;;;;;;5049114;28;20112;-77
2021/12/29 09:53:04;;;;;;;3.85;1.77;;;8.10;99.90;;;;;;5049759;28;20045;-77
2021/12/29 09:55:30;;;;;;;3.58;1.75;;;8.10;99.90;;;;;;5049774;28;20044;-78
2021/12/29 09:57:59;;;;;;;0.80;0.80;;;8.10;99.90;;;;;;5039509;28;20049;-77
2021/12/29 10:00:26;;;;;;;4.80;2.92;;;8.10;99.90;;;;;;5035373;28;20051;-77
2021/12/29 10:02:55;;;;;;;15.95;4.63;;;8.10;99.90;;;;;;5048516;28;20029;-77
2021/12/29 10:05:24;;;;;;;16.00;4.78;;;8.20;99.90;;;;;;5013370;28;20057;-77
2021/12/29 10:08:30;;;;;;;11.57;3.67;;;8.20;99.90;;;;;;5033671;28;20041;-77
2021/12/29 10:11:03;;;;;;;3.03;1.95;;;8.20;99.90;;;;;;4956127;28;20109;-77
2021/12/29 10:13:34;;;;;;;17.33;2.40;;;8.20;99.90;;;;;;4972281;28;20051;-77
2021/12/29 10:16:18;;;;;;;1.90;1.75;;;8.20;99.90;;;;;;4996081;28;20573;-77
2021/12/29 10:19:05;;;;;;;0.80;0.80;;;8.30;99.90;;;;;;5035177;28;20532;-77
2021/12/29 10:21:31;;;;;;;1.00;1.00;;;8.30;99.90;;;;;;5053960;28;20063;-77
2021/12/29 10:23:59;;;;;;;1.77;1.65;;;8.30;99.90;;;;;;5060977;28;20033;-77
2021/12/29 10:26:28;;;;;;;2.83;1.80;;;8.30;99.90;;;;;;5039164;28;20803;-77
2021/12/29 10:29:02;;;;;;;2.47;1.83;;;8.30;99.90;;;;;;5038344;28;20045;-77
2021/12/29 10:31:50;;;;;;;8.30;3.45;;;8.40;99.90;;;;;;5046809;28;20048;-77
2021/12/29 10:34:23;;;;;;;1.00;1.00;;;8.40;99.90;;;;;;5032713;28;20413;-77
2021/12/29 10:37:11;;;;;;;8.60;3.45;;;8.40;99.90;;;;;;5031451;28;20045;-78
2021/12/29 10:39:39;;;;;;;0.20;0.20;;;8.40;99.90;;;;;;5033047;28;20041;-77
2021/12/29 10:42:09;;;;;;;2.33;2.00;;;8.50;99.90;;;;;;5033074;28;20048;-77
2021/12/29 10:44:40;;;;;;;0.30;0.30;;;8.50;99.90;;;;;;5038110;28;20493;-77
2021/12/29 10:47:24;;;;;;;0.20;0.20;;;8.40;99.90;;;;;;5052405;28;20041;-77
2021/12/29 10:49:55;;;;;;;5.72;2.78;;;8.50;99.90;;;;;;5032063;28;20061;-77
2021/12/29 10:52:32;;;;;;;8.65;2.13;;;8.50;99.90;;;;;;5032978;28;20053;-77
2021/12/29 10:54:59;;;;;;;0.30;0.30;;;8.40;99.90;;;;;;5032576;28;20042;-77
2021/12/29 10:57:25;;;;;;;7.93;2.65;;;8.40;99.90;;;;;;5064585;28;20045;-77
2021/12/29 10:59:55;;;;;;;0.20;0.20;;;8.40;99.90;;;;;;5041832;28;20044;-77
2021/12/29 11:02:29;;;;;;;4.38;2.20;;;8.40;99.90;;;;;;5051477;28;20401;-77
2021/12/29 11:05:02;;;;;;;0.28;0.28;;;8.40;99.90;;;;;;5051053;28;20041;-77
2021/12/29 11:07:29;;;;;;;0.28;0.28;;;8.40;99.90;;;;;;5030173;28;20049;-77
2021/12/29 11:10:06;;;;;;;0.20;0.20;;;8.30;99.90;;;;;;5032532;28;20398;-77
2021/12/29 11:12:44;;;;;;;0.10;0.10;;;8.30;99.90;;;;;;5032571;28;20136;-77
2021/12/29 11:15:22;;;;;;;0.30;0.30;;;8.30;99.90;;;;;;5047980;28;20040;-77
2021/12/29 11:17:48;;;;;;;15.90;1.17;;;8.40;99.90;;;;;;5051675;28;20044;-77
2021/12/29 11:20:23;;;;;;;2.20;0.38;;;8.40;99.90;;;;;;5050357;28;20045;-77
2021/12/29 11:22:51;;;;;;;0.15;0.15;;;8.40;99.90;;;;;;5032229;28;20041;-76
2021/12/29 11:25:47;;;;;;;0.40;0.40;;;8.40;99.90;;;;;;5049557;28;20108;-76
2021/12/29 11:28:26;;;;;;;0.10;0.10;;;8.40;99.90;;;;;;5028932;28;20033;-77
2021/12/29 11:30:54;;;;;;;1.33;1.30;;;8.50;99.90;;;;;;5035415;28;20057;-77
2021/12/29 11:33:20;;;;;;;1.17;1.08;;;8.50;99.90;;;;;;5048793;28;20518;-76
2021/12/29 11:35:50;;;;;;;1.85;1.23;;;8.50;99.90;;;;;;5048376;28;20497;-76
2021/12/29 11:38:17;;;;;;;0.38;0.38;;;8.50;99.90;;;;;;5047583;28;20048;-76
2021/12/29 11:40:48;;;;;;;2.28;1.60;;;8.50;99.90;;;;;;5033681;28;20045;-77
2021/12/29 11:43:16;;;;;;;2.70;1.95;;;8.50;99.90;;;;;;5031587;28;20115;-77
2021/12/29 11:45:45;;;;;;;0.25;0.25;;;8.60;99.90;;;;;;5047107;28;20037;-77
2021/12/29 11:48:11;;;;;;;1.30;0.88;;;8.60;99.90;;;;;;5028595;28;20041;-76
2021/12/29 11:50:45;;;;;;;1.45;0.85;;;8.70;99.90;;;;;;5046474;28;20049;-76
2021/12/29 11:53:16;;;;;;;7.88;2.03;;;8.70;99.90;;;;;;5030133;28;20076;-77
2021/12/29 11:55:50;;;;;;;3.58;1.63;;;8.80;99.90;;;;;;5046129;28;20045;-77
2021/12/29 11:58:27;;;;;;;0.68;0.68;;;8.80;99.90;;;;;;5029692;28;20602;-77
2021/12/29 12:01:31;;;;;;;0.50;0.50;;;8.80;99.90;;;;;;5046793;28;20075;-76
2021/12/29 12:04:00;;;;;;;1.40;0.95;;;8.80;99.90;;;;;;5031384;28;20045;-76
2021/12/29 12:06:31;;;;;;;4.38;2.90;;;8.80;99.90;;;;;;5032449;28;20463;-77
2021/12/29 12:09:25;;;;;;;2.17;1.00;;;8.80;99.90;;;;;;5044950;28;20047;-76
2021/12/29 12:11:50;;;;;;;1.45;1.35;;;8.80;99.90;;;;;;5076905;28;20073;-76
2021/12/29 12:14:36;;;;;;;0.43;0.43;;;8.80;99.90;;;;;;5045174;28;20496;-76
2021/12/29 12:17:17;;;;;;;0.25;0.25;;;8.70;99.90;;;;;;5046381;28;20043;-76
2021/12/29 12:19:44;;;;;;;1.13;0.65;;;8.70;99.90;;;;;;5045399;28;20052;-77
2021/12/29 12:22:13;;;;;;;0.90;0.85;;;8.70;99.90;;;;;;5046098;28;20136;-77
2021/12/29 12:24:50;;;;;;;1.55;0.82;;;8.70;99.90;;;;;;5033653;28;20037;-76
2021/12/29 12:27:28;;;;;;;3.33;1.70;;;8.70;99.90;;;;;;5030858;28;20116;-78
2021/12/29 12:30:08;;;;;;;0.38;0.38;;;8.60;99.90;;;;;;5042174;28;20128;-78
2021/12/29 12:32:47;;;;;;;2.35;2.20;;;8.60;99.90;;;;;;5045195;28;20037;-78
2021/12/29 12:35:25;;;;;;;16.60;3.50;;;8.60;99.90;;;;;;5043365;28;20064;-78
2021/12/29 12:37:51;;;;;;;3.80;1.42;;;8.50;99.90;;;;;;5029684;28;20041;-78
2021/12/29 12:40:24;;;;;;;2.97;1.95;;;8.50;99.90;;;;;;5047632;28;20120;-78
2021/12/29 12:43:11;;;;;;;0.52;0.52;;;8.50;99.90;;;;;;5048245;28;20051;-77
2021/12/29 12:45:57;;;;;;;2.78;0.93;;;8.40;99.90;;;;;;5076112;28;20134;-77
2021/12/29 12:48:31;;;;;;;3.75;1.00;;;8.40;99.90;;;;;;5036200;28;20482;-77
2021/12/29 12:51:01;;;;;;;1.50;1.40;;;8.40;99.90;;;;;;5043159;28;20544;-78
2021/12/29 12:53:33;;;;;;;2.70;1.63;;;8.40;99.90;;;;;;5052255;28;20464;-77
2021/12/29 12:56:02;;;;;;;0.47;0.38;;;8.30;99.90;;;;;;5043979;28;20405;-78
2021/12/29 12:58:50;;;;;;;1.90;1.70;;;8.30;99.90;;;;;;5048804;28;20048;-77
2021/12/29 13:01:45;;;;;;;29.30;1.48;;;8.30;99.90;;;;;;5033087;28;20041;-77
2021/12/29 13:04:15;;;;;;;0.80;0.80;;;8.30;99.90;;;;;;5029589;28;20498;-77
2021/12/29 13:06:42;;;;;;;0.68;0.68;;;8.30;99.90;;;;;;5041169;28;20186;-77